Time;durP1;ratioP1;P1;durP2;ratioP2;P2;SDS_P1;SDS_P2;PMS_P1;PMS_P2;Temp;Humidity;BMP_temperature;BMP_pressure;BME280_temperature;BME280_humidity;BME280_pressure;Samples;Min_cycle;Max_cycle;Signal;HPM_P1;HPM_P2
2022/09/01 00:01:38;;;;;;;0.00;0.00;;;;;;;19.43;53.87;101990.13;7364433;19;20023;-62
2022/09/01 00:04:04;;;;;;;0.00;0.00;;;;;;;19.42;53.56;101985.75;7363432;19;20022;-62
2022/09/01 00:06:32;;;;;;;0.00;0.00;;;;;;;19.43;53.13;101983.97;7364159;19;20014;-62
2022/09/01 00:09:02;;;;;;;0.00;0.00;;;;;;;19.41;53.28;101981.41;7363996;19;20041;-61
2022/09/01 00:11:28;;;;;;;0.00;0.00;;;;;;;19.38;54.94;101981.50;7363437;19;20022;-62
2022/09/01 00:14:00;;;;;;;0.00;0.00;;;;;;;19.40;54.16;101982.28;7364680;19;20044;-62
2022/09/01 00:16:25;;;;;;;0.00;0.00;;;;;;;19.39;53.93;101980.56;7365061;19;20014;-61
2022/09/01 00:18:53;;;;;;;0.05;0.05;;;;;;;19.38;54.92;101981.50;7365830;19;26964;-62
2022/09/01 00:21:22;;;;;;;0.00;0.00;;;;;;;19.39;53.78;101977.06;7365202;19;20025;-62
2022/09/01 00:23:48;;;;;;;0.00;0.00;;;;;;;19.37;54.28;101969.19;7361848;19;20021;-62
2022/09/01 00:26:13;;;;;;;0.00;0.00;;;;;;;19.37;54.51;101971.84;7364516;19;20014;-62
2022/09/01 00:28:40;;;;;;;0.00;0.00;;;;;;;19.36;54.08;101978.06;7365732;19;20018;-61
2022/09/01 00:31:06;;;;;;;0.00;0.00;;;;;;;19.37;54.43;101973.63;7362779;19;20037;-62
2022/09/01 00:33:33;;;;;;;0.00;0.00;;;;;;;19.32;55.24;101965.84;7365270;19;20023;-62
2022/09/01 00:36:04;;;;;;;0.00;0.00;;;;;;;19.36;54.98;101967.47;7362003;19;20019;-62
2022/09/01 00:38:30;;;;;;;0.00;0.00;;;;;;;19.33;55.59;101969.38;7365599;19;20106;-62
2022/09/01 00:40:59;;;;;;;0.00;0.00;;;;;;;19.33;54.87;101962.28;7363319;19;20003;-62
2022/09/01 00:43:47;;;;;;;0.00;0.00;;;;;;;19.35;52.90;101968.38;7364759;19;20100;-62
2022/09/01 00:46:27;;;;;;;0.00;0.00;;;;;;;19.33;53.41;101962.28;7363529;19;20731;-62
2022/09/01 00:49:10;;;;;;;0.00;0.00;;;;;;;19.18;53.38;101933.75;7363283;19;20006;-61
2022/09/01 00:51:37;;;;;;;0.00;0.00;;;;;;;19.29;54.21;101960.66;7359305;19;20438;-62
2022/09/01 00:54:04;;;;;;;;;;;;;;;19.31;52.10;101957.94;7363266;19;20011;-62
2022/09/01 00:56:38;;;;;;;0.00;0.00;;;;;;;19.26;55.70;101954.63;7361822;19;19957;-61
2022/09/01 00:59:05;;;;;;;0.00;0.00;;;;;;;19.24;55.29;101956.47;7364542;19;20508;-62
2022/09/01 01:01:33;;;;;;;0.00;0.00;;;;;;;19.17;54.88;101943.47;7368924;19;20006;-62
2022/09/01 01:04:01;;;;;;;0.00;0.00;;;;;;;19.19;55.32;101952.22;7368801;19;20015;-62
2022/09/01 01:06:31;;;;;;;0.00;0.00;;;;;;;19.19;54.69;101946.06;7367048;19;20801;-61
2022/09/01 01:09:02;;;;;;;0.00;0.00;;;;;;;19.18;55.22;101941.69;7366268;19;20047;-62
2022/09/01 01:11:31;;;;;;;0.05;0.05;;;;;;;19.21;54.44;101944.22;7367464;19;20027;-62
2022/09/01 01:14:14;;;;;;;0.00;0.00;;;;;;;19.20;55.26;101939.84;7368877;19;20014;-62
2022/09/01 01:16:46;;;;;;;0.00;0.00;;;;;;;19.13;55.47;101912.72;7366837;19;20014;-62
2022/09/01 01:23:04;;;;;;;0.00;0.00;;;;;;;19.28;54.67;101937.75;7267155;19;2004476;-62
2022/09/01 01:25:40;;;;;;;0.00;0.00;;;;;;;19.26;56.18;101936.06;7265824;19;2004528;-62
2022/09/01 01:28:14;;;;;;;0.00;0.00;;;;;;;19.30;55.39;101930.59;7366548;19;20422;-62
2022/09/01 01:30:49;;;;;;;0.00;0.00;;;;;;;19.31;55.19;101932.34;7366775;19;20015;-62
2022/09/01 01:33:16;;;;;;;0.00;0.00;;;;;;;19.32;56.23;101934.06;7369158;19;20010;-62
2022/09/01 01:35:42;;;;;;;0.00;0.00;;;;;;;19.33;56.21;101935.78;7368082;19;20097;-61
2022/09/01 01:38:07;;;;;;;0.00;0.00;;;;;;;19.36;56.29;101935.69;7366087;19;20740;-61
2022/09/01 01:40:35;;;;;;;0.00;0.00;;;;;;;19.38;55.79;101933.81;7367435;19;20002;-62
2022/09/01 01:43:00;;;;;;;0.00;0.00;;;;;;;19.36;56.04;101919.78;7365838;19;20018;-62
2022/09/01 01:45:27;;;;;;;0.00;0.00;;;;;;;19.41;56.25;101917.81;7367795;19;20378;-62
2022/09/01 01:47:53;;;;;;;0.00;0.00;;;;;;;19.43;56.16;101915.97;7368330;19;20018;-62
2022/09/01 01:50:34;;;;;;;0.00;0.00;;;;;;;19.48;55.00;101909.63;7363514;19;21151;-62
2022/09/01 01:53:01;;;;;;;0.00;0.00;;;;;;;19.37;56.28;101900.31;7367419;19;20077;-62
2022/09/01 01:55:29;;;;;;;0.00;0.00;;;;;;;19.45;55.90;101908.78;7366019;19;20019;-62
2022/09/01 01:58:05;;;;;;;0.00;0.00;;;;;;;19.45;56.07;101911.44;7358252;19;20053;-62
2022/09/01 02:00:37;;;;;;;0.00;0.00;;;;;;;19.46;55.60;101909.66;7365471;19;20007;-62
2022/09/01 02:03:04;;;;;;;0.00;0.00;;;;;;;19.47;55.29;101915.84;7366719;19;20891;-62
2022/09/01 02:05:34;;;;;;;0.00;0.00;;;;;;;19.49;54.96;101913.97;7367030;19;20140;-62
2022/09/01 02:08:06;;;;;;;0.00;0.00;;;;;;;19.51;55.84;101917.41;7368498;19;20010;-63
2022/09/01 02:10:43;;;;;;;0.00;0.00;;;;;;;19.49;55.74;101911.34;7367212;19;20006;-62
2022/09/01 02:13:15;;;;;;;0.00;0.00;;;;;;;19.50;56.26;101910.41;7364089;19;20013;-62
2022/09/01 02:15:49;;;;;;;0.00;0.00;;;;;;;19.50;56.33;101913.91;7368168;19;20082;-62
2022/09/01 02:18:23;;;;;;;0.00;0.00;;;;;;;19.52;55.23;101911.22;7368251;19;20086;-62
2022/09/01 02:20:51;;;;;;;0.00;0.00;;;;;;;19.50;56.12;101915.69;7366314;19;20014;-62
2022/09/01 02:23:23;;;;;;;0.00;0.00;;;;;;;19.53;56.32;101910.28;7364233;19;20492;-62
2022/09/01 02:25:56;;;;;;;0.00;0.00;;;;;;;19.51;56.62;101910.31;7365141;19;20473;-62
2022/09/01 02:28:22;;;;;;;0.00;0.00;;;;;;;19.51;56.52;101909.47;7368408;19;20018;-61
2022/09/01 02:30:52;;;;;;;0.00;0.00;;;;;;;19.53;55.61;101910.28;7368949;19;20363;-62
2022/09/01 02:33:24;;;;;;;0.00;0.00;;;;;;;19.52;57.35;101909.44;7365701;19;20093;-62
2022/09/01 02:35:52;;;;;;;0.00;0.00;;;;;;;19.54;57.55;101912.00;7366065;19;20070;-62
2022/09/01 02:38:25;;;;;;;0.00;0.00;;;;;;;19.51;57.24;101912.13;7368208;19;20006;-62
2022/09/01 02:40:54;;;;;;;0.00;0.00;;;;;;;19.21;56.74;101859.50;7364388;19;20014;-62
2022/09/01 02:43:21;;;;;;;0.00;0.00;;;;;;;19.52;57.46;101916.53;7366177;19;20765;-61
2022/09/01 02:45:53;;;;;;;0.00;0.00;;;;;;;19.52;57.06;101916.53;7366846;19;20007;-62
2022/09/01 02:48:23;;;;;;;0.00;0.00;;;;;;;19.51;57.17;101912.13;7366610;19;20014;-62
2022/09/01 02:50:53;;;;;;;0.00;0.00;;;;;;;19.53;56.99;101913.81;7366126;19;20017;-62
2022/09/01 02:53:18;;;;;;;0.08;0.08;;;;;;;19.50;56.82;101915.69;7364316;19;20014;-62
2022/09/01 02:55:44;;;;;;;0.00;0.00;;;;;;;19.52;57.16;101912.09;7366876;19;20123;-62
2022/09/01 02:58:15;;;;;;;0.00;0.00;;;;;;;19.51;56.10;101909.47;7363673;19;20025;-62
2022/09/01 03:00:43;;;;;;;0.00;0.00;;;;;;;19.49;57.23;101898.94;7360181;19;20006;-62
2022/09/01 03:03:18;;;;;;;0.00;0.00;;;;;;;19.51;57.28;101907.69;7363740;19;20043;-62
2022/09/01 03:05:55;;;;;;;0.00;0.00;;;;;;;19.54;56.27;101906.72;7362201;19;20476;-61
2022/09/01 03:08:24;;;;;;;0.00;0.00;;;;;;;19.51;57.05;101897.09;7368719;19;20470;-62
2022/09/01 03:10:52;;;;;;;0.00;0.00;;;;;;;19.52;57.25;101900.63;7366130;19;20082;-62
2022/09/01 03:13:22;;;;;;;0.00;0.00;;;;;;;19.47;56.80;101881.41;7366183;19;20052;-62
2022/09/01 03:15:49;;;;;;;0.00;0.00;;;;;;;19.50;56.98;101905.09;7365673;19;20466;-62
2022/09/01 03:18:20;;;;;;;0.00;0.00;;;;;;;19.37;56.76;101879.13;7359178;19;20018;-62
2022/09/01 03:20:46;;;;;;;0.00;0.00;;;;;;;19.48;57.03;101896.38;7364850;19;20074;-62
2022/09/01 03:23:17;;;;;;;0.00;0.00;;;;;;;19.49;57.75;101903.38;7363557;19;20007;-61
2022/09/01 03:25:46;;;;;;;0.10;0.10;;;;;;;19.51;56.69;101893.56;7367529;19;20730;-62
2022/09/01 03:28:13;;;;;;;0.00;0.00;;;;;;;19.49;57.73;101892.78;7365703;19;20017;-62
2022/09/01 03:30:46;;;;;;;0.00;0.00;;;;;;;19.50;56.91;101884.78;7364256;19;20016;-62
2022/09/01 03:33:11;;;;;;;0.00;0.00;;;;;;;19.48;57.18;101891.06;7367632;19;20707;-62
2022/09/01 03:35:39;;;;;;;0.00;0.00;;;;;;;19.47;58.02;101879.63;7366193;19;20032;-62
2022/09/01 03:38:11;;;;;;;0.00;0.00;;;;;;;19.44;56.57;101875.28;7367151;19;20014;-62
2022/09/01 03:40:37;;;;;;;0.00;0.00;;;;;;;19.47;57.84;101876.09;7362207;19;20019;-62
2022/09/01 03:43:05;;;;;;;0.00;0.00;;;;;;;19.47;57.42;101879.63;7366317;19;20052;-63
2022/09/01 03:45:37;;;;;;;0.00;0.00;;;;;;;19.37;58.00;101857.94;7366327;19;20485;-62
2022/09/01 03:48:09;;;;;;;0.00;0.00;;;;;;;19.47;57.79;101874.31;7367205;19;20011;-62
2022/09/01 03:50:45;;;;;;;0.00;0.00;;;;;;;19.47;56.20;101876.97;7365277;19;20010;-62
2022/09/01 03:53:13;;;;;;;0.00;0.00;;;;;;;19.43;57.70;101873.56;7366601;19;20528;-62
2022/09/01 03:55:43;;;;;;;0.00;0.00;;;;;;;19.38;57.83;101864.94;7365413;19;20035;-62
2022/09/01 03:58:11;;;;;;;0.00;0.00;;;;;;;19.33;57.74;101864.28;7366331;19;20496;-62
2022/09/01 04:00:39;;;;;;;0.00;0.00;;;;;;;19.41;57.64;101869.25;7365495;19;20014;-62
2022/09/01 04:03:11;;;;;;;0.00;0.00;;;;;;;19.40;57.52;101867.53;7364278;19;20361;-62
2022/09/01 04:05:40;;;;;;;0.00;0.00;;;;;;;19.37;57.54;101876.47;7366125;19;20006;-62
2022/09/01 04:08:10;;;;;;;0.00;0.00;;;;;;;19.37;58.10;101862.38;7365935;19;20041;-62
2022/09/01 04:10:43;;;;;;;0.00;0.00;;;;;;;19.36;58.10;101872.09;7364887;19;20022;-62
2022/09/01 04:13:10;;;;;;;0.00;0.00;;;;;;;19.22;58.65;101841.81;7366173;19;20010;-62
2022/09/01 04:15:37;;;;;;;0.00;0.00;;;;;;;19.31;58.37;101863.50;7364251;19;20026;-62
2022/09/01 04:18:16;;;;;;;0.00;0.00;;;;;;;19.29;57.57;101859.16;7367846;19;20003;-61
2022/09/01 04:20:47;;;;;;;0.00;0.00;;;;;;;19.27;58.83;101861.88;7366130;19;20006;-62
2022/09/01 04:23:32;;;;;;;0.00;0.00;;;;;;;19.29;57.88;101856.50;7364285;19;20010;-62
2022/09/01 04:26:12;;;;;;;0.00;0.00;;;;;;;19.26;58.27;101860.16;7361932;19;20007;-62
2022/09/01 04:28:40;;;;;;;0.00;0.00;;;;;;;19.24;58.48;101856.69;7365945;19;20006;-62
2022/09/01 04:31:17;;;;;;;0.00;0.00;;;;;;;19.24;58.13;101859.34;7363419;19;20010;-62
2022/09/01 04:33:45;;;;;;;0.00;0.00;;;;;;;19.19;57.63;101853.38;7366692;19;20018;-62
2022/09/01 04:36:31;;;;;;;0.00;0.00;;;;;;;19.21;56.33;101856.84;7370396;19;20641;-62
2022/09/01 04:39:01;;;;;;;0.00;0.00;;;;;;;19.16;57.89;101848.22;7368671;19;20794;-61
2022/09/01 04:41:31;;;;;;;0.00;0.00;;;;;;;19.14;57.80;101848.25;7370806;19;21748;-62
2022/09/01 04:44:01;;;;;;;0.00;0.00;;;;;;;19.10;58.90;101853.72;7370740;19;20007;-62
2022/09/01 04:46:31;;;;;;;0.00;0.00;;;;;;;19.06;58.45;101852.13;7367526;19;20010;-62
2022/09/01 04:48:57;;;;;;;0.00;0.00;;;;;;;19.05;58.24;101855.69;7370589;19;20019;-62
2022/09/01 04:51:26;;;;;;;0.00;0.00;;;;;;;19.02;58.61;101855.84;7370753;19;20014;-62
2022/09/01 04:53:56;;;;;;;0.10;0.10;;;;;;;18.97;58.32;101853.38;7371706;19;20086;-62
2022/09/01 04:56:22;;;;;;;0.00;0.00;;;;;;;18.80;58.19;101822.25;7369799;19;20019;-61
2022/09/01 04:58:49;;;;;;;0.00;0.00;;;;;;;18.90;58.77;101844.78;7371171;19;20011;-62
2022/09/01 05:01:18;;;;;;;;;;;;;;;18.92;56.06;101840.31;7371449;19;20010;-62
2022/09/01 05:03:44;;;;;;;0.00;0.00;;;;;;;18.87;58.80;101846.72;7370686;19;20319;-62
2022/09/01 05:06:18;;;;;;;0.00;0.00;;;;;;;18.87;57.65;101847.56;7369663;19;20043;-62
2022/09/01 05:08:50;;;;;;;0.00;0.00;;;;;;;18.82;58.84;101844.25;7371237;19;20006;-62
2022/09/01 05:11:16;;;;;;;0.00;0.00;;;;;;;18.78;58.96;101845.28;7368206;19;20090;-62
2022/09/01 05:13:46;;;;;;;0.00;0.00;;;;;;;18.78;58.43;101847.06;7370586;19;20431;-62
2022/09/01 05:16:14;;;;;;;0.00;0.00;;;;;;;18.72;60.07;101850.81;7369402;19;20014;-61
2022/09/01 05:18:47;;;;;;;0.00;0.00;;;;;;;18.71;58.86;101841.16;7368171;19;20014;-62
2022/09/01 05:21:16;;;;;;;0.00;0.00;;;;;;;18.66;59.86;101838.66;7364737;19;20022;-62
2022/09/01 05:23:43;;;;;;;0.00;0.00;;;;;;;18.65;59.63;101849.28;7368654;19;20014;-62
2022/09/01 05:26:17;;;;;;;0.00;0.00;;;;;;;18.64;58.62;101845.78;7370653;19;20017;-62
2022/09/01 05:28:48;;;;;;;0.00;0.00;;;;;;;18.58;59.48;101847.78;7368697;19;20504;-62
2022/09/01 05:31:18;;;;;;;0.00;0.00;;;;;;;18.57;59.80;101854.00;7370373;19;20010;-62
2022/09/01 05:33:47;;;;;;;0.00;0.00;;;;;;;18.44;59.61;101836.88;7367855;19;20482;-62
2022/09/01 05:36:16;;;;;;;0.00;0.00;;;;;;;18.54;59.79;101854.13;7370099;19;20006;-62
2022/09/01 05:38:46;;;;;;;0.00;0.00;;;;;;;18.55;59.85;101855.84;7367950;19;20041;-61
2022/09/01 05:41:19;;;;;;;0.00;0.00;;;;;;;18.53;60.59;101847.09;7369272;19;20769;-62
2022/09/01 05:43:50;;;;;;;0.00;0.00;;;;;;;18.53;59.98;101853.25;7369394;19;20011;-62
2022/09/01 05:46:25;;;;;;;0.00;0.00;;;;;;;18.54;59.59;101854.13;7366665;19;20021;-62
2022/09/01 05:48:54;;;;;;;0.00;0.00;;;;;;;18.54;60.05;101849.69;7370848;19;21108;-61
2022/09/01 05:51:27;;;;;;;0.00;0.00;;;;;;;18.54;60.03;101843.53;7365894;19;20014;-62
2022/09/01 05:53:59;;;;;;;0.00;0.00;;;;;;;18.45;59.88;101834.19;7370628;19;20534;-63
2022/09/01 05:56:26;;;;;;;0.00;0.00;;;;;;;18.51;59.89;101848.97;7367157;19;20010;-62
2022/09/01 05:58:52;;;;;;;0.00;0.00;;;;;;;18.55;60.18;101855.84;7362123;19;20463;-62
2022/09/01 06:01:21;;;;;;;0.00;0.00;;;;;;;18.56;60.51;101849.66;7366910;19;20014;-62
2022/09/01 06:03:53;;;;;;;0.00;0.00;;;;;;;18.59;60.86;101852.16;7367472;19;20058;-62
2022/09/01 06:06:24;;;;;;;0.00;0.00;;;;;;;18.61;60.18;101855.63;7362814;19;20573;-62
2022/09/01 06:08:57;;;;;;;0.00;0.00;;;;;;;18.60;60.48;101849.47;7366967;19;20770;-61
2022/09/01 06:11:26;;;;;;;0.00;0.00;;;;;;;18.56;60.50;101839.94;7365694;19;20474;-63
2022/09/01 06:13:54;;;;;;;0.00;0.00;;;;;;;18.65;61.19;101852.81;7366115;19;20006;-61
2022/09/01 06:16:20;;;;;;;0.00;0.00;;;;;;;18.68;61.51;101851.84;7364750;19;20022;-62
2022/09/01 06:18:46;;;;;;;0.00;0.00;;;;;;;18.59;61.18;101831.00;7365050;19;20027;-62
2022/09/01 06:21:13;;;;;;;0.00;0.00;;;;;;;18.73;60.85;101851.69;7365542;19;20649;-62
2022/09/01 06:23:43;;;;;;;0.00;0.00;;;;;;;18.77;60.35;101854.16;7369633;19;20542;-62
2022/09/01 06:26:20;;;;;;;0.00;0.00;;;;;;;18.79;60.67;101848.78;7362494;19;20022;-62
2022/09/01 06:29:08;;;;;;;0.00;0.00;;;;;;;18.75;59.40;101837.44;7366300;19;20827;-61
2022/09/01 06:31:39;;;;;;;0.00;0.00;;;;;;;18.87;61.30;101857.31;7365031;19;20010;-62
2022/09/01 06:34:08;;;;;;;0.00;0.00;;;;;;;18.89;61.24;101850.16;7363845;19;20350;-61
2022/09/01 06:36:39;;;;;;;0.00;0.00;;;;;;;18.93;61.08;101860.56;7359731;19;20020;-63
2022/09/01 06:39:13;;;;;;;0.00;0.00;;;;;;;18.94;62.20;101853.47;7357123;19;20013;-61
2022/09/01 06:41:38;;;;;;;0.00;0.00;;;;;;;18.98;61.80;101851.59;7360798;19;20011;-62
2022/09/01 06:44:04;;;;;;;0.00;0.00;;;;;;;19.00;62.20;101857.66;7363290;19;20051;-62
2022/09/01 06:46:34;;;;;;;0.00;0.00;;;;;;;19.03;61.88;101862.84;7359528;19;20010;-61
2022/09/01 06:48:59;;;;;;;0.00;0.00;;;;;;;19.05;62.24;101866.28;7363222;19;20788;-62
2022/09/01 06:51:30;;;;;;;0.00;0.00;;;;;;;19.05;62.11;101859.22;7354461;19;20043;-62
2022/09/01 06:54:00;;;;;;;0.00;0.00;;;;;;;19.12;61.67;101867.78;7363286;19;20796;-62
2022/09/01 06:56:30;;;;;;;0.00;0.00;;;;;;;19.13;62.16;101864.22;7361657;19;20022;-61
2022/09/01 06:58:57;;;;;;;0.00;0.00;;;;;;;19.16;61.67;101869.41;7366782;19;20048;-62
2022/09/01 07:01:24;;;;;;;0.00;0.00;;;;;;;19.10;61.59;101848.44;7365619;19;20010;-63
2022/09/01 07:03:57;;;;;;;0.00;0.00;;;;;;;19.22;61.65;101855.91;7365905;19;20572;-62
2022/09/01 07:06:28;;;;;;;0.00;0.00;;;;;;;19.26;61.26;101854.88;7361527;19;20010;-63
2022/09/01 07:08:58;;;;;;;0.00;0.00;;;;;;;19.18;61.51;101841.06;7366061;19;20003;-62
2022/09/01 07:11:27;;;;;;;0.00;0.00;;;;;;;19.30;61.66;101845.00;7362892;19;20377;-62
2022/09/01 07:14:01;;;;;;;0.10;0.10;;;;;;;19.34;61.29;101847.44;7366985;19;20395;-62
2022/09/01 07:16:29;;;;;;;0.00;0.00;;;;;;;19.40;61.61;101856.94;7355016;19;20011;-61
2022/09/01 07:18:59;;;;;;;0.00;0.00;;;;;;;19.44;61.25;101859.38;7362207;19;20356;-62
2022/09/01 07:21:25;;;;;;;0.00;0.00;;;;;;;19.49;61.54;101861.00;7360228;19;20021;-62
2022/09/01 07:23:51;;;;;;;0.00;0.00;;;;;;;19.51;60.77;101856.47;7363491;19;20010;-61
2022/09/01 07:26:24;;;;;;;0.00;0.00;;;;;;;19.54;61.04;101861.66;7354517;19;20010;-62
2022/09/01 07:28:50;;;;;;;0.00;0.00;;;;;;;19.57;60.94;101858.91;7358911;19;20104;-62
2022/09/01 07:31:21;;;;;;;0.00;0.00;;;;;;;19.66;59.99;101858.53;7352435;19;20033;-62
2022/09/01 07:33:51;;;;;;;0.00;0.00;;;;;;;19.60;60.34;101848.19;7362606;19;20080;-62
2022/09/01 07:36:20;;;;;;;0.00;0.00;;;;;;;19.70;60.37;101860.13;7362645;19;20014;-63
2022/09/01 07:38:52;;;;;;;0.00;0.00;;;;;;;19.75;60.04;101863.44;7361449;19;20002;-62
2022/09/01 07:41:19;;;;;;;0.00;0.00;;;;;;;19.80;59.93;101860.59;7362473;19;20082;-62
2022/09/01 07:43:44;;;;;;;0.10;0.10;;;;;;;19.81;59.89;101852.56;7363398;19;20804;-61
2022/09/01 07:46:11;;;;;;;0.00;0.00;;;;;;;19.90;60.12;101856.63;7357385;19;20023;-62
2022/09/01 07:48:37;;;;;;;0.00;0.00;;;;;;;19.95;59.64;101849.34;7357794;19;20014;-62
2022/09/01 07:51:05;;;;;;;0.00;0.00;;;;;;;20.08;59.66;101852.31;7359877;19;20010;-63
2022/09/01 07:53:41;;;;;;;0.00;0.00;;;;;;;20.07;59.78;101848.81;7361661;19;20014;-62
2022/09/01 07:56:10;;;;;;;0.00;0.00;;;;;;;20.24;59.08;101856.00;7359990;19;20567;-62
2022/09/01 07:58:37;;;;;;;0.05;0.05;;;;;;;20.32;59.45;101864.47;7363095;19;20010;-62
2022/09/01 08:01:07;;;;;;;;;;;;;;;20.46;57.66;101862.09;7361776;19;20446;-62
2022/09/01 08:03:38;;;;;;;0.00;0.00;;;;;;;20.51;58.29;101861.03;7362692;19;19959;-62
2022/09/01 08:06:08;;;;;;;0.00;0.00;;;;;;;20.55;57.95;101871.44;7360966;19;20019;-62
2022/09/01 08:08:40;;;;;;;0.00;0.00;;;;;;;20.53;57.97;101862.69;7359282;19;20335;-62
2022/09/01 08:11:14;;;;;;;0.00;0.00;;;;;;;20.55;58.05;101858.16;7362403;19;20470;-62
2022/09/01 08:13:40;;;;;;;0.00;0.00;;;;;;;20.56;57.85;101866.97;7363601;19;20340;-62
2022/09/01 08:16:06;;;;;;;0.00;0.00;;;;;;;20.58;57.95;101865.09;7363122;19;25305;-61
2022/09/01 08:18:32;;;;;;;0.00;0.00;;;;;;;20.61;58.11;101867.63;7360391;19;20018;-62
2022/09/01 08:20:58;;;;;;;0.00;0.00;;;;;;;20.62;57.63;101861.38;7358654;19;20700;-62
2022/09/01 08:23:26;;;;;;;0.00;0.00;;;;;;;20.67;57.58;101870.00;7359520;19;20022;-62
2022/09/01 08:25:53;;;;;;;0.05;0.05;;;;;;;20.66;57.63;101849.69;7359147;19;20010;-62
2022/09/01 08:28:19;;;;;;;0.00;0.00;;;;;;;20.77;57.44;101865.13;7362863;19;20039;-62
2022/09/01 08:30:47;;;;;;;0.00;0.00;;;;;;;20.73;57.33;101852.00;7360663;19;20018;-61
2022/09/01 08:33:13;;;;;;;0.00;0.00;;;;;;;20.88;57.20;101857.50;7357908;19;21263;-62
2022/09/01 08:35:44;;;;;;;0.03;0.03;;;;;;;20.95;56.96;101854.50;7362193;19;20102;-62
2022/09/01 08:38:09;;;;;;;0.00;0.00;;;;;;;21.00;56.84;101872.88;7362076;19;20331;-62
2022/09/01 08:40:35;;;;;;;0.10;0.10;;;;;;;21.05;56.78;101870.00;7360396;19;20480;-62
2022/09/01 08:43:15;;;;;;;0.00;0.00;;;;;;;21.14;56.06;101865.09;7362355;19;20011;-62
2022/09/01 08:45:52;;;;;;;0.00;0.00;;;;;;;21.12;56.22;101850.16;7358367;19;20018;-62
2022/09/01 08:48:46;;;;;;;0.00;0.00;;;;;;;21.27;56.46;101860.03;7360717;19;20021;-62
2022/09/01 08:51:22;;;;;;;0.00;0.00;;;;;;;21.54;55.95;101849.84;7259873;19;2004531;-61
2022/09/01 08:53:58;;;;;;;0.00;0.00;;;;;;;21.81;55.52;101860.91;7362129;19;20459;-62
2022/09/01 08:56:25;;;;;;;0.00;0.00;;;;;;;21.99;54.93;101857.28;7362530;19;20458;-62
2022/09/01 08:58:51;;;;;;;0.00;0.00;;;;;;;22.19;54.87;101858.06;7360235;19;20026;-62
2022/09/01 09:01:29;;;;;;;0.00;0.00;;;;;;;22.36;54.04;101847.41;7353443;19;20073;-62
2022/09/01 09:04:19;;;;;;;0.00;0.00;;;;;;;22.59;53.63;101858.59;7359352;19;20003;-62
2022/09/01 09:07:14;;;;;;;0.00;0.00;;;;;;;22.81;53.48;101853.81;7361129;19;20011;-61
2022/09/01 09:09:45;;;;;;;0.00;0.00;;;;;;;23.00;52.99;101858.97;7257855;19;2004531;-62
2022/09/01 09:12:58;;;;;;;0.00;0.00;;;;;;;23.24;52.68;101851.41;7361783;19;20478;-62
2022/09/01 09:15:40;;;;;;;0.00;0.00;;;;;;;23.41;51.84;101839.75;7255678;19;2004735;-61
2022/09/01 09:18:17;;;;;;;0.00;0.00;;;;;;;23.64;51.38;101843.78;7359349;19;20027;-62
2022/09/01 09:20:43;;;;;;;;;;;;;;;23.85;52.20;101834.47;7363673;19;20029;-62
2022/09/01 09:23:23;;;;;;;0.00;0.00;;;;;;;23.89;50.44;101833.34;7367129;19;19921;-62
2022/09/01 09:25:49;;;;;;;0.00;0.00;;;;;;;23.83;50.37;101831.06;7368167;19;20112;-61
2022/09/01 09:28:15;;;;;;;0.00;0.00;;;;;;;23.88;49.82;101836.97;7361876;19;20019;-62
2022/09/01 09:30:40;;;;;;;0.00;0.00;;;;;;;23.91;49.77;101833.25;7366184;19;20011;-62
2022/09/01 09:33:09;;;;;;;0.00;0.00;;;;;;;23.95;50.31;101829.44;7366023;19;20015;-62
2022/09/01 09:35:35;;;;;;;0.00;0.00;;;;;;;24.04;50.17;101821.75;7366603;19;20010;-62
2022/09/01 09:38:10;;;;;;;0.00;0.00;;;;;;;24.32;50.02;101833.38;7365584;19;20841;-61
2022/09/01 09:40:36;;;;;;;0.00;0.00;;;;;;;24.39;48.62;101820.53;7366266;19;20352;-62
2022/09/01 09:43:05;;;;;;;0.00;0.00;;;;;;;24.58;48.77;101821.94;7365343;19;20019;-62
2022/09/01 09:45:38;;;;;;;0.00;0.00;;;;;;;24.67;48.23;101820.47;7362903;19;20789;-61
2022/09/01 09:48:25;;;;;;;0.00;0.00;;;;;;;24.82;48.43;101818.63;7365076;19;20006;-62
2022/09/01 09:50:52;;;;;;;0.00;0.00;;;;;;;24.84;47.65;101808.72;7366853;19;20010;-62
2022/09/01 09:53:25;;;;;;;0.00;0.00;;;;;;;25.07;47.69;101824.13;7367547;19;20010;-62
2022/09/01 09:56:24;;;;;;;0.00;0.00;;;;;;;25.19;47.89;101817.09;7366861;19;20018;-61
2022/09/01 09:58:52;;;;;;;0.00;0.00;;;;;;;25.14;46.15;101818.38;7262096;19;2005420;-61
2022/09/01 10:01:24;;;;;;;0.00;0.00;;;;;;;25.13;47.12;101809.50;7366251;19;20019;-62
2022/09/01 10:03:51;;;;;;;0.00;0.00;;;;;;;25.04;47.00;101818.97;7364755;19;20034;-62
2022/09/01 10:06:36;;;;;;;0.00;0.00;;;;;;;25.10;47.97;101810.56;7364349;19;20804;-62
2022/09/01 10:09:13;;;;;;;0.00;0.00;;;;;;;25.05;47.03;101809.97;7366638;19;20871;-61
2022/09/01 10:11:47;;;;;;;0.10;0.10;;;;;;;25.08;46.54;101809.78;7364917;19;20018;-61
2022/09/01 10:14:15;;;;;;;0.00;0.00;;;;;;;25.24;47.41;101808.78;7358779;19;20042;-62
2022/09/01 10:16:42;;;;;;;0.00;0.00;;;;;;;25.41;46.70;101800.50;7360169;19;20017;-61
2022/09/01 10:19:11;;;;;;;;;;;;;;;25.87;48.16;101806.25;7365412;19;20113;-62
2022/09/01 10:21:39;;;;;;;0.00;0.00;;;;;;;26.06;45.77;101803.16;7363288;19;19919;-62
2022/09/01 10:24:10;;;;;;;0.00;0.00;;;;;;;26.50;45.92;101796.44;7365588;19;20010;-62
2022/09/01 10:26:37;;;;;;;0.00;0.00;;;;;;;26.85;43.72;101803.72;7359167;19;20010;-62
2022/09/01 10:29:13;;;;;;;0.00;0.00;;;;;;;27.30;44.38;101793.25;7366199;19;20020;-62
2022/09/01 10:31:40;;;;;;;0.10;0.10;;;;;;;27.51;41.92;101778.19;7344997;19;20089;-62
2022/09/01 10:34:10;;;;;;;0.10;0.10;;;;;;;27.82;40.93;101770.44;7363647;19;20022;-62
2022/09/01 10:36:36;;;;;;;0.00;0.00;;;;;;;28.12;40.74;101784.13;7363839;19;20015;-61
2022/09/01 10:39:03;;;;;;;0.08;0.08;;;;;;;28.30;40.78;101791.72;7363332;19;22726;-62
2022/09/01 10:42:06;;;;;;;0.05;0.05;;;;;;;28.55;42.79;101780.72;7363931;19;20765;-62
2022/09/01 10:44:34;;;;;;;0.00;0.00;;;;;;;28.62;40.10;101781.91;7258133;19;2004592;-61
2022/09/01 10:47:23;;;;;;;0.00;0.00;;;;;;;28.96;41.60;101784.53;7365865;19;20010;-61
2022/09/01 10:49:49;;;;;;;0.00;0.00;;;;;;;29.15;38.64;101776.63;7261360;19;2004676;-62
2022/09/01 10:52:52;;;;;;;0.10;0.10;;;;;;;29.66;41.89;101766.97;7348084;19;20036;-62
2022/09/01 10:55:24;;;;;;;0.00;0.00;;;;;;;29.97;39.30;101779.44;7257547;19;2004442;-62
2022/09/01 10:58:00;;;;;;;0.00;0.00;;;;;;;30.27;39.07;101766.97;7356867;19;20006;-62
2022/09/01 11:00:26;;;;;;;0.00;0.00;;;;;;;30.61;38.40;101770.16;7361254;19;20474;-62
2022/09/01 11:03:10;;;;;;;0.03;0.03;;;;;;;31.25;39.39;101775.03;7359511;19;20010;-62
2022/09/01 11:05:59;;;;;;;0.00;0.00;;;;;;;31.74;39.57;101767.75;7365063;19;20022;-62
2022/09/01 11:08:27;;;;;;;0.00;0.00;;;;;;;32.11;35.87;101752.53;7360658;19;20475;-62
2022/09/01 11:11:06;;;;;;;0.10;0.10;;;;;;;32.48;35.77;101763.31;7364844;19;20035;-61
2022/09/01 11:13:45;;;;;;;0.00;0.00;;;;;;;32.87;34.95;101763.88;7363109;19;20078;-62
2022/09/01 11:16:26;;;;;;;0.00;0.00;;;;;;;32.99;35.57;101759.13;7361709;19;20018;-61
2022/09/01 11:18:52;;;;;;;0.00;0.00;;;;;;;32.84;33.01;101757.94;7364649;19;20860;-62
2022/09/01 11:21:25;;;;;;;0.00;0.00;;;;;;;32.88;33.31;101759.31;7363009;19;20014;-62
2022/09/01 11:23:50;;;;;;;0.00;0.00;;;;;;;32.65;31.47;101753.53;7362232;19;20010;-62
2022/09/01 11:26:34;;;;;;;0.03;0.03;;;;;;;32.75;33.72;101747.06;7362013;19;20328;-62
2022/09/01 11:29:00;;;;;;;0.00;0.00;;;;;;;32.58;32.55;101753.28;7362782;19;20018;-62
2022/09/01 11:31:31;;;;;;;0.00;0.00;;;;;;;32.62;33.05;101754.69;7355376;19;20031;-62
2022/09/01 11:34:09;;;;;;;0.00;0.00;;;;;;;32.46;32.46;101754.50;7362430;19;20010;-61
2022/09/01 11:36:36;;;;;;;0.00;0.00;;;;;;;32.34;32.22;101750.28;7361990;19;20589;-62
2022/09/01 11:39:05;;;;;;;0.00;0.00;;;;;;;32.33;33.46;101756.69;7362187;19;20141;-61
2022/09/01 11:41:45;;;;;;;0.00;0.00;;;;;;;32.26;33.01;101749.19;7362517;19;20477;-61
2022/09/01 11:44:41;;;;;;;0.00;0.00;;;;;;;32.30;34.10;101760.56;7362030;19;20007;-62
2022/09/01 11:47:15;;;;;;;0.00;0.00;;;;;;;32.33;33.69;101754.81;7259540;19;2004510;-62
2022/09/01 11:50:09;;;;;;;0.00;0.00;;;;;;;32.64;34.63;101752.66;7363419;19;20015;-62